createdAt,value
2018-10-18T00:00:02.693Z,57.07
2018-10-18T00:02:36.622Z,57.77
2018-10-18T00:05:08.422Z,58.97
2018-10-18T00:07:39.321Z,57.50
2018-10-18T00:10:09.962Z,60.93
2018-10-18T00:12:41.062Z,64.37
2018-10-18T00:15:10.864Z,60.93
2018-10-18T00:17:45.642Z,62.00
2018-10-18T00:20:17.205Z,58.40
2018-10-18T00:22:48.181Z,58.40
2018-10-18T00:25:18.181Z,62.17
2018-10-18T00:27:48.002Z,60.80
2018-10-18T00:30:19.076Z,66.03
2018-10-18T00:32:48.984Z,63.87
2018-10-18T00:35:19.864Z,59.50
2018-10-18T00:37:49.624Z,58.77
2018-10-18T00:40:20.624Z,58.97
2018-10-18T00:42:51.085Z,60.60
2018-10-18T00:45:22.065Z,66.60
2018-10-18T00:47:52.467Z,57.80
2018-10-18T00:50:22.544Z,53.23
2018-10-18T00:52:53.724Z,58.27
2018-10-18T00:55:25.004Z,59.50
2018-10-18T00:57:55.024Z,61.13
2018-10-18T01:00:26.676Z,62.70
2018-10-18T01:02:58.123Z,91.93
2018-10-18T01:05:28.166Z,66.43
2018-10-18T01:07:57.920Z,61.50
2018-10-18T01:10:27.864Z,61.43
2018-10-18T01:12:58.704Z,64.90
2018-10-18T01:15:28.744Z,59.03
2018-10-18T01:17:58.582Z,53.80
2018-10-18T01:20:28.744Z,65.17
2018-10-18T01:22:58.718Z,65.97
2018-10-18T01:25:29.739Z,79.10
2018-10-18T01:27:59.819Z,103.77
2018-10-18T01:30:30.878Z,124.43
2018-10-18T01:33:00.959Z,79.60
2018-10-18T01:35:31.318Z,78.53
2018-10-18T01:38:01.471Z,79.40
2018-10-18T01:40:32.839Z,112.67
2018-10-18T01:43:03.698Z,81.30
2018-10-18T01:45:34.559Z,63.10
2018-10-18T01:48:05.968Z,59.37
2018-10-18T01:50:38.119Z,113.87
2018-10-18T01:53:08.920Z,60.70
2018-10-18T01:55:39.061Z,59.40
2018-10-18T01:58:09.141Z,58.23
2018-10-18T02:00:40.081Z,60.27
2018-10-18T02:03:09.981Z,59.40
2018-10-18T02:05:41.221Z,62.47
2018-10-18T02:08:11.139Z,125.20
2018-10-18T02:10:42.380Z,83.63
2018-10-18T02:13:13.401Z,71.40
2018-10-18T02:15:43.500Z,479.90
2018-10-18T02:18:13.440Z,502.83
2018-10-18T02:20:44.448Z,697.40
2018-10-18T02:23:14.381Z,489.17
2018-10-18T02:25:44.066Z,279.90
2018-10-18T02:28:15.521Z,68.17
2018-10-18T02:30:50.741Z,63.33
2018-10-18T02:33:20.840Z,61.40
2018-10-18T02:35:50.880Z,60.87
2018-10-18T02:38:20.960Z,63.67
2018-10-18T02:40:50.958Z,65.70
2018-10-18T02:43:21.779Z,61.37
2018-10-18T02:45:51.518Z,62.07
2018-10-18T02:48:25.099Z,54.17
2018-10-18T02:50:56.180Z,58.63
2018-10-18T02:53:26.619Z,57.07
2018-10-18T02:55:56.418Z,52.53
2018-10-18T02:58:27.619Z,50.93
2018-10-18T03:00:57.761Z,54.40
2018-10-18T03:03:27.720Z,53.73
2018-10-18T03:05:57.945Z,51.87
2018-10-18T03:08:28.961Z,50.33
2018-10-18T03:11:00.727Z,50.83
2018-10-18T03:13:31.681Z,50.73
2018-10-18T03:16:01.731Z,49.30
2018-10-18T03:18:32.801Z,49.73
2018-10-18T03:21:03.780Z,48.43
2018-10-18T03:23:33.921Z,51.87
2018-10-18T03:26:04.921Z,47.43
2018-10-18T03:28:35.221Z,46.47
2018-10-18T03:31:05.141Z,46.97
2018-10-18T03:33:36.822Z,43.20
2018-10-18T03:36:07.811Z,43.50
2018-10-18T03:38:38.780Z,46.00
2018-10-18T03:41:09.841Z,41.83
2018-10-18T03:43:40.722Z,44.90
2018-10-18T03:46:10.562Z,45.67
2018-10-18T03:48:40.661Z,50.10
2018-10-18T03:51:10.601Z,45.00
2018-10-18T03:53:41.961Z,46.13
2018-10-18T03:56:12.030Z,41.83
2018-10-18T03:58:41.882Z,63.67
2018-10-18T04:01:12.119Z,47.77
2018-10-18T04:03:42.019Z,46.73
2018-10-18T04:06:11.816Z,50.43
2018-10-18T04:08:41.839Z,46.10
2018-10-18T04:11:13.379Z,54.37
2018-10-18T04:13:43.519Z,50.73
2018-10-18T04:16:15.059Z,54.93
2018-10-18T04:18:44.859Z,54.77
2018-10-18T04:21:15.059Z,53.07
2018-10-18T04:23:45.446Z,49.70
2018-10-18T04:26:15.499Z,49.63
2018-10-18T04:28:46.239Z,45.43
2018-10-18T04:31:16.939Z,45.90
2018-10-18T04:33:49.020Z,45.47
2018-10-18T04:36:19.137Z,46.93
2018-10-18T04:38:49.119Z,45.57
2018-10-18T04:41:19.838Z,42.33
2018-10-18T04:43:49.899Z,41.13
2018-10-18T04:46:20.959Z,48.17
2018-10-18T04:48:51.427Z,40.23
2018-10-18T04:51:21.420Z,39.23
2018-10-18T04:53:51.860Z,37.07
2018-10-18T04:56:21.723Z,38.90
2018-10-18T04:58:51.679Z,39.07
2018-10-18T05:01:21.812Z,38.83
2018-10-18T05:03:51.827Z,39.20
2018-10-18T05:06:21.924Z,40.43
2018-10-18T05:08:57.443Z,42.07
2018-10-18T05:11:27.323Z,39.77
2018-10-18T05:13:57.164Z,38.13
2018-10-18T05:16:28.103Z,37.93
2018-10-18T05:18:58.082Z,41.07
2018-10-18T05:24:05.926Z,42.63
2018-10-18T05:26:35.772Z,40.37
2018-10-18T05:29:05.864Z,39.40
2018-10-18T05:31:37.171Z,38.77
2018-10-18T05:34:07.063Z,35.40
2018-10-18T05:36:36.943Z,36.90
2018-10-18T05:39:11.524Z,37.50
2018-10-18T05:41:42.564Z,37.57
2018-10-18T05:44:13.863Z,39.93
2018-10-18T05:46:43.762Z,39.30
2018-10-18T05:51:49.182Z,38.57
2018-10-18T05:54:19.193Z,36.23
2018-10-18T05:56:50.330Z,39.87
2018-10-18T05:59:26.924Z,39.07
2018-10-18T06:01:56.960Z,40.87
2018-10-18T06:04:26.761Z,42.47
2018-10-18T06:06:56.789Z,38.93
2018-10-18T06:09:32.652Z,38.00
2018-10-18T06:12:04.099Z,37.83
2018-10-18T06:14:34.399Z,37.03
2018-10-18T06:17:04.464Z,39.57
2018-10-18T06:19:34.559Z,37.07
2018-10-18T06:22:04.641Z,41.37
2018-10-18T06:24:34.678Z,40.13
2018-10-18T06:27:05.939Z,41.40
2018-10-18T06:29:37.107Z,42.23
2018-10-18T06:32:11.439Z,39.20
2018-10-18T06:34:41.599Z,37.97
2018-10-18T06:37:11.625Z,38.70
2018-10-18T06:39:41.899Z,37.87
2018-10-18T06:42:12.320Z,35.90
2018-10-18T06:44:42.240Z,34.63
2018-10-18T06:47:12.350Z,35.27
2018-10-18T06:49:42.239Z,33.77
2018-10-18T06:52:12.099Z,33.37
2018-10-18T06:54:42.639Z,33.87
2018-10-18T06:57:12.819Z,33.60
2018-10-18T06:59:42.913Z,33.60
2018-10-18T07:02:13.009Z,34.13
2018-10-18T07:04:42.992Z,34.23
2018-10-18T07:07:17.928Z,36.03
2018-10-18T07:09:48.009Z,31.63
2018-10-18T07:12:19.070Z,33.97
2018-10-18T07:14:49.089Z,33.03
2018-10-18T07:17:20.441Z,31.37
2018-10-18T07:19:51.501Z,32.30
2018-10-18T07:22:26.140Z,28.77
2018-10-18T07:24:56.282Z,30.43
2018-10-18T07:27:27.482Z,27.73
2018-10-18T07:29:57.805Z,27.47
2018-10-18T07:32:28.000Z,26.47
2018-10-18T07:34:59.127Z,27.50
2018-10-18T07:37:29.444Z,28.33
2018-10-18T07:39:59.580Z,27.90
2018-10-18T07:42:29.901Z,27.80
2018-10-18T07:45:01.264Z,28.37
2018-10-18T07:47:31.360Z,28.80
2018-10-18T07:50:01.481Z,27.90
2018-10-18T07:52:31.780Z,27.23
2018-10-18T07:55:01.945Z,27.47
2018-10-18T07:57:32.002Z,26.93
2018-10-18T08:00:02.944Z,27.47
2018-10-18T08:02:33.121Z,27.53
2018-10-18T08:05:03.760Z,27.93
2018-10-18T08:07:34.025Z,27.23
2018-10-18T08:10:04.043Z,27.77
2018-10-18T08:12:34.247Z,27.17
2018-10-18T08:15:04.640Z,27.10
2018-10-18T08:17:35.662Z,27.27
2018-10-18T08:20:05.883Z,28.57
2018-10-18T08:22:36.404Z,28.10
2018-10-18T08:25:06.520Z,27.93
2018-10-18T08:27:37.122Z,27.87
2018-10-18T08:30:11.041Z,28.27
2018-10-18T08:32:44.660Z,28.30
2018-10-18T08:35:17.163Z,27.77
2018-10-18T08:37:48.253Z,26.27
2018-10-18T08:40:19.760Z,27.03
2018-10-18T08:42:54.826Z,25.97
2018-10-18T08:45:24.880Z,27.43
2018-10-18T08:47:54.827Z,26.67
2018-10-18T08:50:24.701Z,26.43
2018-10-18T08:52:54.859Z,26.03
2018-10-18T08:55:25.005Z,28.70
2018-10-18T08:57:54.919Z,27.67
2018-10-18T09:00:25.783Z,27.83
2018-10-18T09:02:55.851Z,26.13
2018-10-18T09:05:27.136Z,27.83
2018-10-18T09:07:58.190Z,27.53
2018-10-18T09:10:29.958Z,26.40
2018-10-18T09:13:00.390Z,29.93
2018-10-18T09:15:30.351Z,29.53
2018-10-18T09:18:00.371Z,27.67
2018-10-18T09:20:30.492Z,28.43
2018-10-18T09:23:00.651Z,29.10
2018-10-18T09:25:30.735Z,27.80
2018-10-18T09:28:00.810Z,30.80
2018-10-18T09:30:30.990Z,28.90
2018-10-18T09:33:00.974Z,28.03
2018-10-18T09:35:31.350Z,28.13
2018-10-18T09:38:01.451Z,30.20
2018-10-18T09:40:31.710Z,31.47
2018-10-18T09:43:02.009Z,29.23
2018-10-18T09:45:32.031Z,31.77
2018-10-18T09:48:02.271Z,32.70
2018-10-18T09:50:32.511Z,32.10
2018-10-18T09:53:05.404Z,31.93
2018-10-18T09:55:35.554Z,35.77
2018-10-18T09:58:06.322Z,34.77
2018-10-18T10:00:41.683Z,33.60
2018-10-18T10:03:12.503Z,34.40
2018-10-18T10:05:42.882Z,35.03
2018-10-18T10:08:13.364Z,35.33
2018-10-18T10:10:43.362Z,38.57
2018-10-18T10:13:13.547Z,38.80
2018-10-18T10:15:43.503Z,38.87
2018-10-18T10:18:13.611Z,36.23
2018-10-18T10:20:43.647Z,36.10
2018-10-18T10:23:13.624Z,37.43
2018-10-18T10:25:43.823Z,39.73
2018-10-18T10:28:14.203Z,39.07
2018-10-18T10:30:44.264Z,42.10
2018-10-18T10:33:14.431Z,39.43
2018-10-18T10:35:44.505Z,38.80
2018-10-18T10:38:14.562Z,39.47
2018-10-18T10:40:44.602Z,39.40
2018-10-18T10:43:14.662Z,37.73
2018-10-18T10:45:44.746Z,38.67
2018-10-18T10:48:14.741Z,40.10
2018-10-18T10:50:44.702Z,39.23
2018-10-18T10:53:14.602Z,37.60
2018-10-18T10:55:44.803Z,37.80
2018-10-18T10:58:15.018Z,39.70
2018-10-18T11:01:20.899Z,38.83
2018-10-18T11:03:52.088Z,38.30
2018-10-18T11:06:22.559Z,37.83
2018-10-18T11:08:52.584Z,38.13
2018-10-18T11:11:23.139Z,39.13
2018-10-18T11:13:53.449Z,37.80
2018-10-18T11:16:23.477Z,38.57
2018-10-18T11:18:53.523Z,38.97
2018-10-18T11:21:24.052Z,33.43
2018-10-18T11:23:54.101Z,37.47
2018-10-18T11:26:24.203Z,34.73
2018-10-18T11:28:54.203Z,36.07
2018-10-18T11:31:24.823Z,38.20
2018-10-18T11:33:55.443Z,34.83
2018-10-18T11:36:26.442Z,33.13
2018-10-18T11:38:56.483Z,35.13
2018-10-18T11:41:26.583Z,37.37
2018-10-18T11:43:56.597Z,35.63
2018-10-18T11:46:27.043Z,35.50
2018-10-18T11:48:57.145Z,38.77
2018-10-18T11:51:27.188Z,39.30
2018-10-18T11:53:57.653Z,36.23
2018-10-18T11:56:27.683Z,38.53
2018-10-18T11:59:01.702Z,39.53
2018-10-18T12:01:31.740Z,36.37
2018-10-18T12:04:01.760Z,38.80
2018-10-18T12:06:31.701Z,37.93
2018-10-18T12:09:01.600Z,34.83
2018-10-18T12:11:31.979Z,34.60
2018-10-18T12:14:02.069Z,34.53
2018-10-18T12:16:31.959Z,34.13
2018-10-18T12:19:02.630Z,35.47
2018-10-18T12:21:37.059Z,37.40
2018-10-18T12:24:07.279Z,36.27
2018-10-18T12:26:37.159Z,36.37
2018-10-18T12:29:07.695Z,34.33
2018-10-18T12:31:37.699Z,35.17
2018-10-18T12:34:07.561Z,36.00
2018-10-18T12:36:37.599Z,34.30
2018-10-18T12:39:09.606Z,35.33
2018-10-18T12:41:39.746Z,35.30
2018-10-18T12:44:09.776Z,36.67
2018-10-18T12:46:39.699Z,34.47
2018-10-18T12:49:09.559Z,35.50
2018-10-18T12:51:39.599Z,37.23
2018-10-18T12:54:09.604Z,36.10
2018-10-18T12:56:39.488Z,35.57
2018-10-18T12:59:09.399Z,35.57
2018-10-18T13:01:43.568Z,37.47
2018-10-18T13:04:13.599Z,37.10
2018-10-18T13:06:43.679Z,35.73
2018-10-18T13:09:13.760Z,36.67
2018-10-18T13:11:44.219Z,34.13
2018-10-18T13:14:14.250Z,35.13
2018-10-18T13:16:44.219Z,35.57
2018-10-18T13:19:14.799Z,38.87
2018-10-18T13:21:45.458Z,34.70
2018-10-18T13:24:15.617Z,35.60
2018-10-18T13:26:47.080Z,36.60
2018-10-18T13:29:17.100Z,37.63
2018-10-18T13:31:47.039Z,37.27
2018-10-18T13:34:16.899Z,34.97
2018-10-18T13:36:47.119Z,36.23
2018-10-18T13:39:17.650Z,37.30
2018-10-18T13:41:47.681Z,34.33
2018-10-18T13:44:18.042Z,36.43
2018-10-18T13:46:48.027Z,35.73
2018-10-18T13:49:17.999Z,37.70
2018-10-18T13:51:52.419Z,37.07
2018-10-18T13:54:22.599Z,35.43
2018-10-18T13:56:52.639Z,35.00
2018-10-18T13:59:33.242Z,36.90
2018-10-18T14:02:03.462Z,37.67
2018-10-18T14:04:33.443Z,35.90
2018-10-18T14:07:03.337Z,35.97
2018-10-18T14:09:33.539Z,37.07
2018-10-18T14:12:04.004Z,37.80
2018-10-18T14:14:34.019Z,36.40
2018-10-18T14:17:04.594Z,37.67
2018-10-18T14:19:34.558Z,35.80
2018-10-18T14:22:06.118Z,36.27
2018-10-18T14:24:37.282Z,36.80
2018-10-18T14:27:07.363Z,36.40
2018-10-18T14:29:37.403Z,38.20
2018-10-18T14:32:08.694Z,36.73
2018-10-18T14:34:38.882Z,36.93
2018-10-18T14:37:08.903Z,36.53
2018-10-18T14:39:39.362Z,35.90
2018-10-18T14:42:09.382Z,38.00
2018-10-18T14:44:39.649Z,38.50
2018-10-18T14:47:10.489Z,37.60
2018-10-18T14:49:41.289Z,38.33
2018-10-18T14:52:11.710Z,37.43
2018-10-18T14:54:42.145Z,37.10
2018-10-18T14:57:12.603Z,38.23
2018-10-18T14:59:44.487Z,39.80
2018-10-18T15:02:16.012Z,40.53
2018-10-18T15:04:45.860Z,38.10
2018-10-18T15:07:15.861Z,37.97
2018-10-18T15:09:46.120Z,36.27
2018-10-18T15:12:16.360Z,34.37
2018-10-18T15:14:46.560Z,35.47
2018-10-18T15:17:16.887Z,37.17
2018-10-18T15:19:46.720Z,36.17
2018-10-18T15:22:20.859Z,37.27
2018-10-18T15:24:51.380Z,38.97
2018-10-18T15:27:22.573Z,36.73
2018-10-18T15:29:52.541Z,39.00
2018-10-18T15:32:22.582Z,38.50
2018-10-18T15:34:52.704Z,37.57
2018-10-18T15:37:22.741Z,35.60
2018-10-18T15:39:54.500Z,37.27
2018-10-18T15:42:24.600Z,36.73
2018-10-18T15:44:54.921Z,36.83
2018-10-18T15:47:25.149Z,49.10
2018-10-18T15:49:55.740Z,38.90
2018-10-18T15:52:25.860Z,40.00
2018-10-18T15:54:56.142Z,39.77
2018-10-18T15:57:27.880Z,40.27
2018-10-18T16:00:02.489Z,38.70
2018-10-18T16:02:33.865Z,37.47
2018-10-18T16:05:04.196Z,37.70
2018-10-18T16:07:34.626Z,37.07
2018-10-18T16:10:04.968Z,38.67
2018-10-18T16:12:35.048Z,38.10
2018-10-18T16:15:06.685Z,38.90
2018-10-18T16:17:36.583Z,39.00
2018-10-18T16:20:07.921Z,39.63
2018-10-18T16:22:38.564Z,44.90
2018-10-18T16:25:10.445Z,43.03
2018-10-18T16:27:41.258Z,39.67
2018-10-18T16:30:11.260Z,39.87
2018-10-18T16:32:41.439Z,38.70
2018-10-18T16:35:16.505Z,36.57
2018-10-18T16:37:50.339Z,36.43
2018-10-18T16:40:20.640Z,38.80
2018-10-18T16:42:53.623Z,36.10
2018-10-18T16:45:24.765Z,38.63
2018-10-18T16:47:56.439Z,38.73
2018-10-18T16:50:26.759Z,37.53
2018-10-18T16:52:56.802Z,36.73
2018-10-18T16:55:27.858Z,36.80
2018-10-18T16:58:00.196Z,36.30
2018-10-18T17:00:30.326Z,35.93
2018-10-18T17:03:03.663Z,39.20
2018-10-18T17:05:33.922Z,40.07
2018-10-18T17:08:05.237Z,40.17
2018-10-18T17:10:36.329Z,38.33
2018-10-18T17:13:10.802Z,38.60
2018-10-18T17:15:41.165Z,39.83
2018-10-18T17:18:11.431Z,37.93
2018-10-18T17:20:42.162Z,40.37
2018-10-18T17:23:12.102Z,39.90
2018-10-18T17:25:42.204Z,39.57
2018-10-18T17:28:17.442Z,39.70
2018-10-18T17:30:47.463Z,38.73
2018-10-18T17:33:17.663Z,42.03
2018-10-18T17:35:47.682Z,42.43
2018-10-18T17:38:18.530Z,43.27
2018-10-18T17:40:48.611Z,43.10
2018-10-18T17:43:19.362Z,45.57
2018-10-18T17:45:49.602Z,45.20
2018-10-18T17:48:21.023Z,45.63
2018-10-18T17:50:51.572Z,46.03
2018-10-18T17:53:21.724Z,47.87
2018-10-18T17:55:52.038Z,47.30
2018-10-18T17:58:22.718Z,46.97
2018-10-18T18:00:52.889Z,46.40
2018-10-18T18:03:24.322Z,46.67
2018-10-18T18:05:55.718Z,45.27
2018-10-18T18:08:28.044Z,40.97
2018-10-18T18:10:59.106Z,40.97
2018-10-18T18:16:04.644Z,40.60
2018-10-18T18:18:35.763Z,40.57
2018-10-18T18:21:06.023Z,40.47
2018-10-18T18:23:36.530Z,41.93
2018-10-18T18:26:06.762Z,42.43
2018-10-18T18:28:36.982Z,41.67
2018-10-18T18:31:06.779Z,41.70
2018-10-18T18:33:38.444Z,40.20
2018-10-18T18:36:09.047Z,39.80
2018-10-18T18:38:39.203Z,38.03
2018-10-18T18:41:10.243Z,38.27
2018-10-18T18:43:40.643Z,34.37
2018-10-18T18:46:11.705Z,34.20
2018-10-18T18:48:43.384Z,35.27
2018-10-18T18:51:13.859Z,34.17
2018-10-18T18:53:44.162Z,34.27
2018-10-18T18:56:14.502Z,32.57
2018-10-18T18:58:58.183Z,32.87
2018-10-18T19:01:33.040Z,32.10
2018-10-18T19:04:12.321Z,32.93
2018-10-18T19:06:42.402Z,33.10
2018-10-18T19:11:47.025Z,33.40
2018-10-18T19:14:19.340Z,34.80
2018-10-18T19:16:49.220Z,34.60
2018-10-18T19:19:30.320Z,33.50
2018-10-18T19:22:00.460Z,34.33
2018-10-18T19:24:34.439Z,34.83
2018-10-18T19:27:04.380Z,36.07
2018-10-18T19:29:34.519Z,33.50
2018-10-18T19:32:09.493Z,33.10
2018-10-18T19:34:40.482Z,34.00
2018-10-18T19:37:10.539Z,31.33
2018-10-18T19:39:40.620Z,31.17
2018-10-18T19:42:11.350Z,34.90
2018-10-18T19:44:41.421Z,34.67
2018-10-18T19:47:12.360Z,34.73
2018-10-18T19:49:42.360Z,30.13
2018-10-18T19:52:12.716Z,28.00
2018-10-18T19:54:43.980Z,32.47
2018-10-18T19:57:14.020Z,27.20
2018-10-18T19:59:44.100Z,26.53
2018-10-18T20:02:15.607Z,29.17
2018-10-18T20:04:45.423Z,30.70
2018-10-18T20:07:15.364Z,33.27
2018-10-18T20:09:45.213Z,30.23
2018-10-18T20:12:15.385Z,29.40
2018-10-18T20:14:45.287Z,28.57
2018-10-18T20:17:15.754Z,30.50
2018-10-18T20:19:45.685Z,33.03
2018-10-18T20:22:16.826Z,35.53
2018-10-18T20:24:51.116Z,32.97
2018-10-18T20:27:21.186Z,29.80
2018-10-18T20:29:51.165Z,30.23
2018-10-18T20:32:21.168Z,29.57
2018-10-18T20:34:53.486Z,32.87
2018-10-18T20:37:23.686Z,29.83
2018-10-18T20:39:53.858Z,29.73
2018-10-18T20:42:25.406Z,30.67
2018-10-18T20:44:55.992Z,30.83
2018-10-18T20:47:25.833Z,30.73
2018-10-18T20:49:56.007Z,29.77
2018-10-18T20:52:26.038Z,31.03
2018-10-18T20:54:56.100Z,30.20
2018-10-18T20:57:31.662Z,34.63
2018-10-18T21:00:01.831Z,33.13
2018-10-18T21:02:31.599Z,31.83
2018-10-18T21:05:03.460Z,31.43
2018-10-18T21:07:33.549Z,32.53
2018-10-18T21:10:03.679Z,32.37
2018-10-18T21:12:33.703Z,32.43
2018-10-18T21:15:03.664Z,30.90
2018-10-18T21:17:39.741Z,31.67
2018-10-18T21:20:09.651Z,34.33
2018-10-18T21:25:13.760Z,33.20
2018-10-18T21:27:43.874Z,32.27
2018-10-18T21:30:13.919Z,36.03
2018-10-18T21:32:44.299Z,35.93
2018-10-18T21:35:14.420Z,37.53
2018-10-18T21:37:44.339Z,34.50
2018-10-18T21:40:15.140Z,35.10
2018-10-18T21:42:45.680Z,36.03
2018-10-18T21:45:15.812Z,35.87
2018-10-18T21:47:45.799Z,35.47
2018-10-18T21:50:15.759Z,32.63
2018-10-18T21:52:45.699Z,31.80
2018-10-18T21:55:15.599Z,32.07
2018-10-18T21:57:45.742Z,36.00
2018-10-18T22:00:16.613Z,36.53
2018-10-18T22:02:47.519Z,35.47
2018-10-18T22:05:17.960Z,36.60
2018-10-18T22:07:48.739Z,35.23
2018-10-18T22:10:19.782Z,34.40
2018-10-18T22:12:49.944Z,35.47
2018-10-18T22:15:20.159Z,35.10
2018-10-18T22:17:50.242Z,35.43
2018-10-18T22:20:21.280Z,36.37
2018-10-18T22:22:51.439Z,35.70
2018-10-18T22:25:25.740Z,35.50
2018-10-18T22:27:55.980Z,35.63
2018-10-18T22:30:26.960Z,37.30
2018-10-18T22:32:57.607Z,36.30
2018-10-18T22:35:27.461Z,36.40
2018-10-18T22:37:58.540Z,39.17
2018-10-18T22:40:29.541Z,36.27
2018-10-18T22:43:00.643Z,38.03
2018-10-18T22:45:30.640Z,38.97
2018-10-18T22:48:00.800Z,38.43
2018-10-18T22:50:31.520Z,36.73
2018-10-18T22:53:04.165Z,37.47
2018-10-18T22:55:34.280Z,38.07
2018-10-18T22:58:05.640Z,40.07
2018-10-18T23:00:36.322Z,39.67
2018-10-18T23:03:10.733Z,39.73
2018-10-18T23:05:41.604Z,39.93
2018-10-18T23:08:12.060Z,38.67
2018-10-18T23:10:41.959Z,40.00
2018-10-18T23:13:12.800Z,41.20
2018-10-18T23:15:45.122Z,39.63
2018-10-18T23:18:16.500Z,40.73
2018-10-18T23:20:47.440Z,42.37
2018-10-18T23:23:17.540Z,41.07
2018-10-18T23:25:51.839Z,40.03
2018-10-18T23:28:22.319Z,42.10
2018-10-18T23:30:52.639Z,42.73
2018-10-18T23:33:23.020Z,41.57
2018-10-18T23:35:54.204Z,41.73
2018-10-18T23:38:23.999Z,40.23
2018-10-18T23:40:53.841Z,38.63
2018-10-18T23:43:23.880Z,40.33
2018-10-18T23:45:55.079Z,41.67
2018-10-18T23:48:25.439Z,39.13
2018-10-18T23:50:56.210Z,40.07
2018-10-18T23:53:30.719Z,40.77
2018-10-18T23:58:34.699Z,40.77
